sensor_id;sensor_type;location;lat;lon;timestamp;temperature;humidity
47757;SHT35;22147;52.388;13.390;2022-12-29T00:01:04;8.19;84.82
47757;SHT35;22147;52.388;13.390;2022-12-29T00:03:32;8.29;84.40
47757;SHT35;22147;52.388;13.390;2022-12-29T00:06:01;8.17;84.53
47757;SHT35;22147;52.388;13.390;2022-12-29T00:08:29;8.37;83.87
47757;SHT35;22147;52.388;13.390;2022-12-29T00:11:16;8.22;84.54
47757;SHT35;22147;52.388;13.390;2022-12-29T00:13:46;8.16;84.32
47757;SHT35;22147;52.388;13.390;2022-12-29T00:16:36;8.24;83.82
47757;SHT35;22147;52.388;13.390;2022-12-29T00:19:06;8.10;84.26
47757;SHT35;22147;52.388;13.390;2022-12-29T00:21:54;8.36;83.38
47757;SHT35;22147;52.388;13.390;2022-12-29T00:24:44;8.20;83.60
47757;SHT35;22147;52.388;13.390;2022-12-29T00:27:32;8.41;82.95
47757;SHT35;22147;52.388;13.390;2022-12-29T00:30:23;8.29;82.95
47757;SHT35;22147;52.388;13.390;2022-12-29T00:33:19;8.36;82.89
47757;SHT35;22147;52.388;13.390;2022-12-29T00:36:37;8.68;81.41
47757;SHT35;22147;52.388;13.390;2022-12-29T00:39:18;8.51;81.94
47757;SHT35;22147;52.388;13.390;2022-12-29T00:42:10;8.30;82.55
47757;SHT35;22147;52.388;13.390;2022-12-29T00:44:59;8.20;83.45
47757;SHT35;22147;52.388;13.390;2022-12-29T00:47:29;8.14;83.23
47757;SHT35;22147;52.388;13.390;2022-12-29T00:49:59;8.38;82.46
47757;SHT35;22147;52.388;13.390;2022-12-29T00:52:29;8.44;82.20
47757;SHT35;22147;52.388;13.390;2022-12-29T00:54:59;8.33;82.07
47757;SHT35;22147;52.388;13.390;2022-12-29T00:57:29;8.23;82.70
47757;SHT35;22147;52.388;13.390;2022-12-29T00:59:58;8.40;81.83
47757;SHT35;22147;52.388;13.390;2022-12-29T01:02:26;8.48;81.60
47757;SHT35;22147;52.388;13.390;2022-12-29T01:04:55;8.23;82.43
47757;SHT35;22147;52.388;13.390;2022-12-29T01:07:23;8.47;82.15
47757;SHT35;22147;52.388;13.390;2022-12-29T01:09:52;8.33;82.08
47757;SHT35;22147;52.388;13.390;2022-12-29T01:12:40;8.47;82.05
47757;SHT35;22147;52.388;13.390;2022-12-29T01:15:14;8.50;81.77
47757;SHT35;22147;52.388;13.390;2022-12-29T01:17:42;8.50;81.87
47757;SHT35;22147;52.388;13.390;2022-12-29T01:20:11;8.34;82.46
47757;SHT35;22147;52.388;13.390;2022-12-29T01:22:39;8.40;82.12
47757;SHT35;22147;52.388;13.390;2022-12-29T01:25:08;8.27;82.57
47757;SHT35;22147;52.388;13.390;2022-12-29T01:27:35;8.14;82.93
47757;SHT35;22147;52.388;13.390;2022-12-29T01:30:05;8.13;82.52
47757;SHT35;22147;52.388;13.390;2022-12-29T01:32:36;8.27;82.71
47757;SHT35;22147;52.388;13.390;2022-12-29T01:35:06;8.47;81.79
47757;SHT35;22147;52.388;13.390;2022-12-29T01:37:36;8.48;81.38
47757;SHT35;22147;52.388;13.390;2022-12-29T01:40:06;8.43;82.26
47757;SHT35;22147;52.388;13.390;2022-12-29T01:42:36;8.43;82.04
47757;SHT35;22147;52.388;13.390;2022-12-29T01:45:17;8.54;81.61
47757;SHT35;22147;52.388;13.390;2022-12-29T01:48:08;8.40;82.23
47757;SHT35;22147;52.388;13.390;2022-12-29T01:50:52;8.60;82.30
47757;SHT35;22147;52.388;13.390;2022-12-29T01:53:34;8.50;82.46
47757;SHT35;22147;52.388;13.390;2022-12-29T01:56:12;8.47;82.35
47757;SHT35;22147;52.388;13.390;2022-12-29T01:58:55;8.44;82.13
47757;SHT35;22147;52.388;13.390;2022-12-29T02:01:26;8.34;82.03
47757;SHT35;22147;52.388;13.390;2022-12-29T02:03:54;8.23;82.46
47757;SHT35;22147;52.388;13.390;2022-12-29T02:06:32;8.36;81.71
47757;SHT35;22147;52.388;13.390;2022-12-29T02:09:02;8.26;82.24
47757;SHT35;22147;52.388;13.390;2022-12-29T02:11:31;8.43;81.10
47757;SHT35;22147;52.388;13.390;2022-12-29T02:14:00;8.44;80.96
47757;SHT35;22147;52.388;13.390;2022-12-29T02:17:00;8.38;80.78
47757;SHT35;22147;52.388;13.390;2022-12-29T02:29:53;8.51;79.82
47757;SHT35;22147;52.388;13.390;2022-12-29T02:39:13;8.55;80.11
47757;SHT35;22147;52.388;13.390;2022-12-29T02:42:25;8.60;79.45
47757;SHT35;22147;52.388;13.390;2022-12-29T02:48:44;8.58;79.97
47757;SHT35;22147;52.388;13.390;2022-12-29T02:51:38;8.55;80.07
47757;SHT35;22147;52.388;13.390;2022-12-29T02:54:10;8.48;79.84
47757;SHT35;22147;52.388;13.390;2022-12-29T02:56:58;8.53;79.84
47757;SHT35;22147;52.388;13.390;2022-12-29T02:59:29;8.51;80.11
47757;SHT35;22147;52.388;13.390;2022-12-29T03:12:30;8.89;78.74
47757;SHT35;22147;52.388;13.390;2022-12-29T03:16:02;8.99;78.12
47757;SHT35;22147;52.388;13.390;2022-12-29T03:24:15;8.99;78.55
47757;SHT35;22147;52.388;13.390;2022-12-29T03:26:54;9.05;78.50
47757;SHT35;22147;52.388;13.390;2022-12-29T03:29:31;9.03;77.81
47757;SHT35;22147;52.388;13.390;2022-12-29T03:32:07;9.02;78.40
47757;SHT35;22147;52.388;13.390;2022-12-29T03:34:39;8.98;78.61
47757;SHT35;22147;52.388;13.390;2022-12-29T03:37:25;9.12;78.19
47757;SHT35;22147;52.388;13.390;2022-12-29T03:39:57;9.15;78.29
47757;SHT35;22147;52.388;13.390;2022-12-29T03:42:35;9.30;77.84
47757;SHT35;22147;52.388;13.390;2022-12-29T03:45:07;9.22;78.16
47757;SHT35;22147;52.388;13.390;2022-12-29T03:47:38;9.20;78.05
47757;SHT35;22147;52.388;13.390;2022-12-29T03:50:13;9.19;78.35
47757;SHT35;22147;52.388;13.390;2022-12-29T03:52:43;9.03;78.85
47757;SHT35;22147;52.388;13.390;2022-12-29T03:55:13;9.18;78.68
47757;SHT35;22147;52.388;13.390;2022-12-29T03:57:43;9.02;78.95
47757;SHT35;22147;52.388;13.390;2022-12-29T04:00:14;8.95;79.51
47757;SHT35;22147;52.388;13.390;2022-12-29T04:02:44;9.11;78.94
47757;SHT35;22147;52.388;13.390;2022-12-29T04:05:14;9.09;79.10
47757;SHT35;22147;52.388;13.390;2022-12-29T04:07:44;9.19;78.54
47757;SHT35;22147;52.388;13.390;2022-12-29T04:10:15;9.30;78.43
47757;SHT35;22147;52.388;13.390;2022-12-29T04:12:45;9.30;78.72
47757;SHT35;22147;52.388;13.390;2022-12-29T04:15:16;9.40;77.96
47757;SHT35;22147;52.388;13.390;2022-12-29T04:17:47;9.26;78.26
47757;SHT35;22147;52.388;13.390;2022-12-29T04:20:15;9.47;77.59
47757;SHT35;22147;52.388;13.390;2022-12-29T04:23:06;9.53;77.59
47757;SHT35;22147;52.388;13.390;2022-12-29T04:25:35;9.42;78.29
47757;SHT35;22147;52.388;13.390;2022-12-29T04:28:04;9.34;78.19
47757;SHT35;22147;52.388;13.390;2022-12-29T04:30:32;9.27;78.56
47757;SHT35;22147;52.388;13.390;2022-12-29T04:33:01;9.34;78.20
47757;SHT35;22147;52.388;13.390;2022-12-29T04:35:29;9.30;78.54
47757;SHT35;22147;52.388;13.390;2022-12-29T04:37:58;9.26;78.86
47757;SHT35;22147;52.388;13.390;2022-12-29T04:40:26;9.23;78.95
47757;SHT35;22147;52.388;13.390;2022-12-29T04:42:55;9.29;79.02
47757;SHT35;22147;52.388;13.390;2022-12-29T04:45:23;9.29;79.09
47757;SHT35;22147;52.388;13.390;2022-12-29T04:47:52;9.43;78.34
47757;SHT35;22147;52.388;13.390;2022-12-29T04:50:20;9.29;79.15
47757;SHT35;22147;52.388;13.390;2022-12-29T04:52:48;9.36;78.88
47757;SHT35;22147;52.388;13.390;2022-12-29T04:55:17;9.47;78.37
47757;SHT35;22147;52.388;13.390;2022-12-29T04:57:45;9.34;78.95
47757;SHT35;22147;52.388;13.390;2022-12-29T05:00:14;9.47;78.61
47757;SHT35;22147;52.388;13.390;2022-12-29T05:02:42;9.51;78.55
47757;SHT35;22147;52.388;13.390;2022-12-29T05:05:11;9.48;78.62
47757;SHT35;22147;52.388;13.390;2022-12-29T05:07:40;9.43;78.81
47757;SHT35;22147;52.388;13.390;2022-12-29T05:10:08;9.42;79.05
47757;SHT35;22147;52.388;13.390;2022-12-29T05:12:38;9.47;79.06
47757;SHT35;22147;52.388;13.390;2022-12-29T05:15:10;9.36;79.53
47757;SHT35;22147;52.388;13.390;2022-12-29T05:17:40;9.61;78.74
47757;SHT35;22147;52.388;13.390;2022-12-29T05:20:11;9.69;78.72
47757;SHT35;22147;52.388;13.390;2022-12-29T05:22:41;9.92;77.54
47757;SHT35;22147;52.388;13.390;2022-12-29T05:25:11;9.77;78.31
47757;SHT35;22147;52.388;13.390;2022-12-29T05:27:41;9.60;79.04
47757;SHT35;22147;52.388;13.390;2022-12-29T05:30:12;9.64;79.53
47757;SHT35;22147;52.388;13.390;2022-12-29T05:32:43;9.80;78.51
47757;SHT35;22147;52.388;13.390;2022-12-29T05:35:13;9.81;78.46
47757;SHT35;22147;52.388;13.390;2022-12-29T05:37:43;9.88;78.27
47757;SHT35;22147;52.388;13.390;2022-12-29T05:40:13;10.05;77.87
47757;SHT35;22147;52.388;13.390;2022-12-29T05:42:43;9.95;78.38
47757;SHT35;22147;52.388;13.390;2022-12-29T05:45:13;10.02;78.50
47757;SHT35;22147;52.388;13.390;2022-12-29T05:47:43;9.99;78.43
47757;SHT35;22147;52.388;13.390;2022-12-29T05:50:14;9.98;78.94
47757;SHT35;22147;52.388;13.390;2022-12-29T05:52:44;10.05;78.53
47757;SHT35;22147;52.388;13.390;2022-12-29T05:55:14;10.09;78.31
47757;SHT35;22147;52.388;13.390;2022-12-29T05:57:45;9.98;78.65
47757;SHT35;22147;52.388;13.390;2022-12-29T06:00:15;9.97;78.85
47757;SHT35;22147;52.388;13.390;2022-12-29T06:02:45;10.05;78.89
47757;SHT35;22147;52.388;13.390;2022-12-29T06:05:16;10.19;77.96
47757;SHT35;22147;52.388;13.390;2022-12-29T06:07:46;10.42;77.25
47757;SHT35;22147;52.388;13.390;2022-12-29T06:10:17;10.29;77.66
47757;SHT35;22147;52.388;13.390;2022-12-29T06:12:47;10.26;78.00
47757;SHT35;22147;52.388;13.390;2022-12-29T06:15:17;10.06;78.50
47757;SHT35;22147;52.388;13.390;2022-12-29T06:17:47;10.05;78.65
47757;SHT35;22147;52.388;13.390;2022-12-29T06:20:15;10.01;78.68
47757;SHT35;22147;52.388;13.390;2022-12-29T06:22:44;10.03;78.84
47757;SHT35;22147;52.388;13.390;2022-12-29T06:25:12;9.98;78.83
47757;SHT35;22147;52.388;13.390;2022-12-29T06:27:42;10.12;78.45
47757;SHT35;22147;52.388;13.390;2022-12-29T06:30:11;10.05;78.59
47757;SHT35;22147;52.388;13.390;2022-12-29T06:32:42;10.13;78.48
47757;SHT35;22147;52.388;13.390;2022-12-29T06:35:12;9.91;79.09
47757;SHT35;22147;52.388;13.390;2022-12-29T06:37:42;9.80;79.76
47757;SHT35;22147;52.388;13.390;2022-12-29T06:40:13;9.81;79.71
47757;SHT35;22147;52.388;13.390;2022-12-29T06:42:43;9.82;79.74
47757;SHT35;22147;52.388;13.390;2022-12-29T06:45:11;9.85;79.59
47757;SHT35;22147;52.388;13.390;2022-12-29T06:47:40;10.08;78.74
47757;SHT35;22147;52.388;13.390;2022-12-29T06:50:08;9.85;79.48
47757;SHT35;22147;52.388;13.390;2022-12-29T06:52:36;9.85;79.70
47757;SHT35;22147;52.388;13.390;2022-12-29T06:55:05;9.95;79.08
47757;SHT35;22147;52.388;13.390;2022-12-29T06:57:33;9.87;79.60
47757;SHT35;22147;52.388;13.390;2022-12-29T07:00:04;9.88;79.89
47757;SHT35;22147;52.388;13.390;2022-12-29T07:02:33;9.94;79.38
47757;SHT35;22147;52.388;13.390;2022-12-29T07:05:02;9.92;79.44
47757;SHT35;22147;52.388;13.390;2022-12-29T07:07:30;9.92;79.87
47757;SHT35;22147;52.388;13.390;2022-12-29T07:09:58;9.82;79.88
47757;SHT35;22147;52.388;13.390;2022-12-29T07:12:27;9.94;79.64
47757;SHT35;22147;52.388;13.390;2022-12-29T07:14:55;10.18;79.02
47757;SHT35;22147;52.388;13.390;2022-12-29T07:17:24;10.18;78.91
47757;SHT35;22147;52.388;13.390;2022-12-29T07:19:52;10.23;78.72
47757;SHT35;22147;52.388;13.390;2022-12-29T07:22:20;10.11;79.19
47757;SHT35;22147;52.388;13.390;2022-12-29T07:24:49;10.08;79.61
47757;SHT35;22147;52.388;13.390;2022-12-29T07:27:17;10.03;79.60
47757;SHT35;22147;52.388;13.390;2022-12-29T07:29:46;10.19;79.20
47757;SHT35;22147;52.388;13.390;2022-12-29T07:32:14;10.18;79.58
47757;SHT35;22147;52.388;13.390;2022-12-29T07:34:43;10.39;78.77
47757;SHT35;22147;52.388;13.390;2022-12-29T07:37:16;10.32;78.79
47757;SHT35;22147;52.388;13.390;2022-12-29T07:39:46;10.08;79.55
47757;SHT35;22147;52.388;13.390;2022-12-29T07:42:17;10.13;79.69
47757;SHT35;22147;52.388;13.390;2022-12-29T07:44:47;10.25;79.18
47757;SHT35;22147;52.388;13.390;2022-12-29T07:47:17;10.23;79.00
47757;SHT35;22147;52.388;13.390;2022-12-29T07:49:47;10.13;79.36
47757;SHT35;22147;52.388;13.390;2022-12-29T07:52:17;10.12;79.54
47757;SHT35;22147;52.388;13.390;2022-12-29T07:54:47;10.12;79.44
47757;SHT35;22147;52.388;13.390;2022-12-29T07:57:17;9.91;80.52
47757;SHT35;22147;52.388;13.390;2022-12-29T07:59:47;10.18;79.48
47757;SHT35;22147;52.388;13.390;2022-12-29T08:02:17;10.25;79.31
47757;SHT35;22147;52.388;13.390;2022-12-29T08:04:47;10.30;79.20
47757;SHT35;22147;52.388;13.390;2022-12-29T08:07:17;10.22;79.42
47757;SHT35;22147;52.388;13.390;2022-12-29T08:09:47;10.43;78.45
47757;SHT35;22147;52.388;13.390;2022-12-29T08:12:20;10.52;78.60
47757;SHT35;22147;52.388;13.390;2022-12-29T08:14:50;10.63;78.04
47757;SHT35;22147;52.388;13.390;2022-12-29T08:17:21;10.59;78.08
47757;SHT35;22147;52.388;13.390;2022-12-29T08:19:51;10.61;78.23
47757;SHT35;22147;52.388;13.390;2022-12-29T08:22:21;10.84;77.59
47757;SHT35;22147;52.388;13.390;2022-12-29T08:24:51;10.63;78.26
47757;SHT35;22147;52.388;13.390;2022-12-29T08:27:22;10.60;78.27
47757;SHT35;22147;52.388;13.390;2022-12-29T08:29:52;10.64;78.68
47757;SHT35;22147;52.388;13.390;2022-12-29T08:32:22;10.64;78.41
47757;SHT35;22147;52.388;13.390;2022-12-29T08:34:52;10.45;78.80
47757;SHT35;22147;52.388;13.390;2022-12-29T08:37:22;10.39;79.40
47757;SHT35;22147;52.388;13.390;2022-12-29T08:39:57;10.38;79.15
47757;SHT35;22147;52.388;13.390;2022-12-29T08:42:25;10.42;79.40
47757;SHT35;22147;52.388;13.390;2022-12-29T08:45:01;10.32;79.57
47757;SHT35;22147;52.388;13.390;2022-12-29T08:47:31;10.39;79.15
47757;SHT35;22147;52.388;13.390;2022-12-29T08:50:01;10.55;78.82
47757;SHT35;22147;52.388;13.390;2022-12-29T08:52:31;10.59;78.76
47757;SHT35;22147;52.388;13.390;2022-12-29T08:55:00;10.64;78.47
47757;SHT35;22147;52.388;13.390;2022-12-29T08:57:30;10.67;78.32
47757;SHT35;22147;52.388;13.390;2022-12-29T09:00:02;10.61;78.10
47757;SHT35;22147;52.388;13.390;2022-12-29T09:02:31;10.56;78.84
47757;SHT35;22147;52.388;13.390;2022-12-29T09:05:01;10.53;78.59
47757;SHT35;22147;52.388;13.390;2022-12-29T09:07:31;10.84;77.89
47757;SHT35;22147;52.388;13.390;2022-12-29T09:10:01;10.98;77.38
47757;SHT35;22147;52.388;13.390;2022-12-29T09:12:30;10.78;77.91
47757;SHT35;22147;52.388;13.390;2022-12-29T09:15:06;10.77;78.12
47757;SHT35;22147;52.388;13.390;2022-12-29T09:17:35;10.90;77.62
47757;SHT35;22147;52.388;13.390;2022-12-29T09:20:18;11.14;77.13
47757;SHT35;22147;52.388;13.390;2022-12-29T09:22:48;11.05;77.41
47757;SHT35;22147;52.388;13.390;2022-12-29T09:25:19;10.90;78.01
47757;SHT35;22147;52.388;13.390;2022-12-29T09:27:52;10.92;77.87
47757;SHT35;22147;52.388;13.390;2022-12-29T09:30:23;10.87;78.46
47757;SHT35;22147;52.388;13.390;2022-12-29T09:32:54;11.05;77.77
47757;SHT35;22147;52.388;13.390;2022-12-29T09:35:22;11.21;77.34
47757;SHT35;22147;52.388;13.390;2022-12-29T09:37:54;11.24;77.11
47757;SHT35;22147;52.388;13.390;2022-12-29T09:40:32;11.53;76.31
47757;SHT35;22147;52.388;13.390;2022-12-29T09:43:25;11.24;76.98
47757;SHT35;22147;52.388;13.390;2022-12-29T09:51:40;11.84;75.63
47757;SHT35;22147;52.388;13.390;2022-12-29T09:54:33;12.03;74.89
47757;SHT35;22147;52.388;13.390;2022-12-29T10:00:21;12.28;74.39
47757;SHT35;22147;52.388;13.390;2022-12-29T10:03:14;12.58;73.31
47757;SHT35;22147;52.388;13.390;2022-12-29T10:06:11;12.52;73.84
47757;SHT35;22147;52.388;13.390;2022-12-29T10:15:48;12.84;72.89
47757;SHT35;22147;52.388;13.390;2022-12-29T10:25:25;12.72;72.55
47757;SHT35;22147;52.388;13.390;2022-12-29T10:29:15;12.92;72.44
47757;SHT35;22147;52.388;13.390;2022-12-29T10:32:00;13.00;72.19
47757;SHT35;22147;52.388;13.390;2022-12-29T10:34:48;12.99;72.16
47757;SHT35;22147;52.388;13.390;2022-12-29T10:37:55;13.30;70.98
47757;SHT35;22147;52.388;13.390;2022-12-29T10:40:59;13.23;71.32
47757;SHT35;22147;52.388;13.390;2022-12-29T10:43:56;13.19;71.36
47757;SHT35;22147;52.388;13.390;2022-12-29T10:46:37;13.30;71.61
47757;SHT35;22147;52.388;13.390;2022-12-29T10:49:18;13.19;71.87
47757;SHT35;22147;52.388;13.390;2022-12-29T10:51:58;13.17;71.75
47757;SHT35;22147;52.388;13.390;2022-12-29T10:54:56;13.34;71.65
47757;SHT35;22147;52.388;13.390;2022-12-29T10:57:37;13.13;71.70
47757;SHT35;22147;52.388;13.390;2022-12-29T11:00:20;13.06;71.99
47757;SHT35;22147;52.388;13.390;2022-12-29T11:06:30;12.96;71.79
47757;SHT35;22147;52.388;13.390;2022-12-29T11:09:22;12.73;72.56
47757;SHT35;22147;52.388;13.390;2022-12-29T11:12:28;12.68;73.17
47757;SHT35;22147;52.388;13.390;2022-12-29T11:17:56;12.65;73.67
47757;SHT35;22147;52.388;13.390;2022-12-29T11:20:37;12.55;74.31
47757;SHT35;22147;52.388;13.390;2022-12-29T11:23:39;12.32;77.24
47757;SHT35;22147;52.388;13.390;2022-12-29T11:26:28;12.08;78.89
47757;SHT35;22147;52.388;13.390;2022-12-29T11:29:14;11.83;79.96
47757;SHT35;22147;52.388;13.390;2022-12-29T11:31:54;11.89;80.53
47757;SHT35;22147;52.388;13.390;2022-12-29T11:34:34;11.57;82.19
47757;SHT35;22147;52.388;13.390;2022-12-29T11:37:31;11.67;83.08
47757;SHT35;22147;52.388;13.390;2022-12-29T11:40:18;11.45;84.59
47757;SHT35;22147;52.388;13.390;2022-12-29T11:43:02;11.40;85.44
47757;SHT35;22147;52.388;13.390;2022-12-29T11:45:36;11.15;86.43
47757;SHT35;22147;52.388;13.390;2022-12-29T11:48:19;10.99;86.91
47757;SHT35;22147;52.388;13.390;2022-12-29T11:50:57;10.98;87.40
47757;SHT35;22147;52.388;13.390;2022-12-29T11:53:47;10.90;87.59
47757;SHT35;22147;52.388;13.390;2022-12-29T11:56:33;10.84;88.09
47757;SHT35;22147;52.388;13.390;2022-12-29T12:02:00;10.50;89.61
47757;SHT35;22147;52.388;13.390;2022-12-29T12:04:37;10.45;90.16
47757;SHT35;22147;52.388;13.390;2022-12-29T12:07:47;10.50;89.95
47757;SHT35;22147;52.388;13.390;2022-12-29T12:10:38;10.49;90.29
47757;SHT35;22147;52.388;13.390;2022-12-29T12:13:46;10.46;90.32
47757;SHT35;22147;52.388;13.390;2022-12-29T12:16:40;10.38;90.61
47757;SHT35;22147;52.388;13.390;2022-12-29T12:22:36;10.15;88.87
47757;SHT35;22147;52.388;13.390;2022-12-29T12:25:21;10.22;89.03
47757;SHT35;22147;52.388;13.390;2022-12-29T12:28:10;10.03;88.54
47757;SHT35;22147;52.388;13.390;2022-12-29T12:30:55;10.01;88.54
47757;SHT35;22147;52.388;13.390;2022-12-29T12:33:41;9.92;87.69
47757;SHT35;22147;52.388;13.390;2022-12-29T12:39:55;9.82;88.63
47757;SHT35;22147;52.388;13.390;2022-12-29T12:46:25;9.94;87.83
47757;SHT35;22147;52.388;13.390;2022-12-29T13:07:16;10.03;86.97
47757;SHT35;22147;52.388;13.390;2022-12-29T13:17:58;10.23;86.76
47757;SHT35;22147;52.388;13.390;2022-12-29T13:20:50;10.20;87.50
47757;SHT35;22147;52.388;13.390;2022-12-29T13:23:53;10.29;87.47
47757;SHT35;22147;52.388;13.390;2022-12-29T13:26:39;10.19;87.72
47757;SHT35;22147;52.388;13.390;2022-12-29T13:29:26;10.23;87.46
47757;SHT35;22147;52.388;13.390;2022-12-29T13:38:07;9.95;88.54
47757;SHT35;22147;52.388;13.390;2022-12-29T13:40:50;10.02;88.85
47757;SHT35;22147;52.388;13.390;2022-12-29T13:43:27;10.01;88.47
47757;SHT35;22147;52.388;13.390;2022-12-29T13:46:25;9.95;88.68
47757;SHT35;22147;52.388;13.390;2022-12-29T13:49:19;9.81;89.32
47757;SHT35;22147;52.388;13.390;2022-12-29T13:51:56;9.65;89.82
47757;SHT35;22147;52.388;13.390;2022-12-29T13:55:20;9.75;89.82
47757;SHT35;22147;52.388;13.390;2022-12-29T14:03:52;9.73;89.44
47757;SHT35;22147;52.388;13.390;2022-12-29T14:06:34;9.97;89.14
47757;SHT35;22147;52.388;13.390;2022-12-29T14:12:40;9.81;89.15
47757;SHT35;22147;52.388;13.390;2022-12-29T14:17:41;9.88;89.23
47757;SHT35;22147;52.388;13.390;2022-12-29T14:20:23;9.98;88.35
47757;SHT35;22147;52.388;13.390;2022-12-29T14:23:29;10.08;88.47
47757;SHT35;22147;52.388;13.390;2022-12-29T14:28:46;10.08;87.50
47757;SHT35;22147;52.388;13.390;2022-12-29T14:37:03;10.23;86.10
47757;SHT35;22147;52.388;13.390;2022-12-29T14:39:44;10.12;85.98
47757;SHT35;22147;52.388;13.390;2022-12-29T14:42:21;10.01;86.50
47757;SHT35;22147;52.388;13.390;2022-12-29T14:47:59;10.03;85.95
47757;SHT35;22147;52.388;13.390;2022-12-29T14:58:00;9.98;85.88
47757;SHT35;22147;52.388;13.390;2022-12-29T15:00:36;9.88;86.32
47757;SHT35;22147;52.388;13.390;2022-12-29T15:03:22;9.90;85.82
47757;SHT35;22147;52.388;13.390;2022-12-29T15:06:03;9.81;85.90
47757;SHT35;22147;52.388;13.390;2022-12-29T15:08:55;9.74;85.84
47757;SHT35;22147;52.388;13.390;2022-12-29T15:11:50;9.73;85.74
47757;SHT35;22147;52.388;13.390;2022-12-29T15:14:37;9.81;85.06
47757;SHT35;22147;52.388;13.390;2022-12-29T15:17:34;9.69;85.57
47757;SHT35;22147;52.388;13.390;2022-12-29T15:20:28;9.80;85.16
47757;SHT35;22147;52.388;13.390;2022-12-29T15:23:18;9.84;84.61
47757;SHT35;22147;52.388;13.390;2022-12-29T15:26:01;9.94;83.89
47757;SHT35;22147;52.388;13.390;2022-12-29T15:28:46;9.87;84.22
47757;SHT35;22147;52.388;13.390;2022-12-29T15:31:24;9.65;84.66
47757;SHT35;22147;52.388;13.390;2022-12-29T15:34:12;9.57;85.09
47757;SHT35;22147;52.388;13.390;2022-12-29T15:36:42;9.37;85.95
47757;SHT35;22147;52.388;13.390;2022-12-29T15:44:50;9.37;85.13
47757;SHT35;22147;52.388;13.390;2022-12-29T15:47:34;9.20;85.55
47757;SHT35;22147;52.388;13.390;2022-12-29T15:50:26;8.98;86.33
47757;SHT35;22147;52.388;13.390;2022-12-29T15:52:58;8.75;87.04
47757;SHT35;22147;52.388;13.390;2022-12-29T15:55:40;8.69;87.48
47757;SHT35;22147;52.388;13.390;2022-12-29T15:58:29;8.65;87.42
47757;SHT35;22147;52.388;13.390;2022-12-29T16:01:01;8.47;87.82
47757;SHT35;22147;52.388;13.390;2022-12-29T16:03:37;8.43;88.22
47757;SHT35;22147;52.388;13.390;2022-12-29T16:06:37;8.58;87.41
47757;SHT35;22147;52.388;13.390;2022-12-29T16:09:36;8.67;86.97
47757;SHT35;22147;52.388;13.390;2022-12-29T16:12:23;8.74;86.37
47757;SHT35;22147;52.388;13.390;2022-12-29T16:15:02;8.93;85.54
47757;SHT35;22147;52.388;13.390;2022-12-29T16:17:52;8.93;85.60
47757;SHT35;22147;52.388;13.390;2022-12-29T16:20:39;8.86;86.24
47757;SHT35;22147;52.388;13.390;2022-12-29T16:23:26;8.92;86.26
47757;SHT35;22147;52.388;13.390;2022-12-29T16:25:58;8.93;85.18
47757;SHT35;22147;52.388;13.390;2022-12-29T16:28:41;8.88;85.32
47757;SHT35;22147;52.388;13.390;2022-12-29T16:31:23;9.03;84.52
47757;SHT35;22147;52.388;13.390;2022-12-29T16:33:55;9.15;83.57
47757;SHT35;22147;52.388;13.390;2022-12-29T16:36:40;9.15;83.71
47757;SHT35;22147;52.388;13.390;2022-12-29T16:39:37;9.12;83.51
47757;SHT35;22147;52.388;13.390;2022-12-29T16:42:45;9.02;83.64
47757;SHT35;22147;52.388;13.390;2022-12-29T16:50:39;9.12;81.86
47757;SHT35;22147;52.388;13.390;2022-12-29T16:53:48;9.30;80.90
47757;SHT35;22147;52.388;13.390;2022-12-29T16:56:27;9.47;79.57
47757;SHT35;22147;52.388;13.390;2022-12-29T16:59:31;9.44;79.66
47757;SHT35;22147;52.388;13.390;2022-12-29T17:02:14;9.23;80.08
47757;SHT35;22147;52.388;13.390;2022-12-29T17:04:45;9.03;81.29
47757;SHT35;22147;52.388;13.390;2022-12-29T17:07:23;8.98;81.18
47757;SHT35;22147;52.388;13.390;2022-12-29T17:09:54;9.11;80.22
47757;SHT35;22147;52.388;13.390;2022-12-29T17:12:30;9.18;79.92
47757;SHT35;22147;52.388;13.390;2022-12-29T17:15:27;9.16;79.84
47757;SHT35;22147;52.388;13.390;2022-12-29T17:18:04;9.05;80.07
47757;SHT35;22147;52.388;13.390;2022-12-29T17:20:42;9.24;79.87
47757;SHT35;22147;52.388;13.390;2022-12-29T17:23:16;9.24;79.70
47757;SHT35;22147;52.388;13.390;2022-12-29T17:25:55;9.57;78.02
47757;SHT35;22147;52.388;13.390;2022-12-29T17:28:31;9.78;77.67
47757;SHT35;22147;52.388;13.390;2022-12-29T17:31:06;9.90;77.40
47757;SHT35;22147;52.388;13.390;2022-12-29T17:33:39;9.90;77.50
47757;SHT35;22147;52.388;13.390;2022-12-29T17:36:11;9.84;77.45
47757;SHT35;22147;52.388;13.390;2022-12-29T17:38:40;9.74;78.56
47757;SHT35;22147;52.388;13.390;2022-12-29T17:41:13;9.74;77.61
47757;SHT35;22147;52.388;13.390;2022-12-29T17:43:44;9.81;76.57
47757;SHT35;22147;52.388;13.390;2022-12-29T17:46:13;9.69;77.71
47757;SHT35;22147;52.388;13.390;2022-12-29T17:48:43;9.57;78.22
47757;SHT35;22147;52.388;13.390;2022-12-29T17:51:21;9.57;77.19
47757;SHT35;22147;52.388;13.390;2022-12-29T17:53:50;9.54;77.81
47757;SHT35;22147;52.388;13.390;2022-12-29T17:56:18;9.54;77.11
47757;SHT35;22147;52.388;13.390;2022-12-29T17:58:48;9.58;77.74
47757;SHT35;22147;52.388;13.390;2022-12-29T18:01:18;9.53;77.54
47757;SHT35;22147;52.388;13.390;2022-12-29T18:03:50;9.46;77.68
47757;SHT35;22147;52.388;13.390;2022-12-29T18:06:20;9.34;77.73
47757;SHT35;22147;52.388;13.390;2022-12-29T18:08:50;9.16;78.50
47757;SHT35;22147;52.388;13.390;2022-12-29T18:11:26;9.12;78.18
47757;SHT35;22147;52.388;13.390;2022-12-29T18:13:55;8.99;78.62
47757;SHT35;22147;52.388;13.390;2022-12-29T18:16:26;8.98;78.58
47757;SHT35;22147;52.388;13.390;2022-12-29T18:18:55;8.89;78.90
47757;SHT35;22147;52.388;13.390;2022-12-29T18:21:26;8.81;78.95
47757;SHT35;22147;52.388;13.390;2022-12-29T18:23:55;8.69;79.52
47757;SHT35;22147;52.388;13.390;2022-12-29T18:26:29;8.58;79.88
47757;SHT35;22147;52.388;13.390;2022-12-29T18:29:03;8.45;80.23
47757;SHT35;22147;52.388;13.390;2022-12-29T18:31:33;8.27;81.39
47757;SHT35;22147;52.388;13.390;2022-12-29T18:34:14;8.12;81.76
47757;SHT35;22147;52.388;13.390;2022-12-29T18:36:44;7.96;82.55
47757;SHT35;22147;52.388;13.390;2022-12-29T18:39:13;7.90;82.74
47757;SHT35;22147;52.388;13.390;2022-12-29T18:41:43;7.76;83.11
47757;SHT35;22147;52.388;13.390;2022-12-29T18:44:13;7.95;82.87
47757;SHT35;22147;52.388;13.390;2022-12-29T18:46:43;7.83;83.16
47757;SHT35;22147;52.388;13.390;2022-12-29T18:49:11;7.75;83.48
47757;SHT35;22147;52.388;13.390;2022-12-29T18:51:40;7.71;84.11
47757;SHT35;22147;52.388;13.390;2022-12-29T18:54:28;7.89;84.02
47757;SHT35;22147;52.388;13.390;2022-12-29T18:56:59;7.99;84.05
47757;SHT35;22147;52.388;13.390;2022-12-29T18:59:29;8.22;83.45